sensor_id;sensor_type;location;lat;lon;timestamp;P1;durP1;ratioP1;P2;durP2;ratioP2
60714;SDS011;46564;53.096;8.246;2022-10-31T00:03:22;10.65;;;5.53;;
60714;SDS011;46564;53.096;8.246;2022-10-31T00:08:23;13.40;;;6.35;;
60714;SDS011;46564;53.096;8.246;2022-10-31T00:13:25;13.75;;;6.13;;
60714;SDS011;46564;53.096;8.246;2022-10-31T00:18:26;12.50;;;5.47;;
60714;SDS011;46564;53.096;8.246;2022-10-31T00:23:28;13.35;;;5.13;;
60714;SDS011;46564;53.096;8.246;2022-10-31T00:28:29;13.25;;;6.53;;
60714;SDS011;46564;53.096;8.246;2022-10-31T00:33:37;13.50;;;5.47;;
60714;SDS011;46564;53.096;8.246;2022-10-31T00:38:40;9.82;;;5.35;;
60714;SDS011;46564;53.096;8.246;2022-10-31T00:43:42;10.60;;;4.68;;
60714;SDS011;46564;53.096;8.246;2022-10-31T00:48:44;15.40;;;5.30;;
60714;SDS011;46564;53.096;8.246;2022-10-31T00:53:46;12.00;;;4.95;;
60714;SDS011;46564;53.096;8.246;2022-10-31T00:58:48;12.27;;;5.97;;
60714;SDS011;46564;53.096;8.246;2022-10-31T01:03:49;11.23;;;5.93;;
60714;SDS011;46564;53.096;8.246;2022-10-31T01:08:51;13.93;;;5.07;;
60714;SDS011;46564;53.096;8.246;2022-10-31T01:13:53;14.73;;;5.55;;
60714;SDS011;46564;53.096;8.246;2022-10-31T01:18:54;18.13;;;6.60;;
60714;SDS011;46564;53.096;8.246;2022-10-31T01:23:56;14.55;;;6.93;;
60714;SDS011;46564;53.096;8.246;2022-10-31T01:28:59;14.73;;;6.38;;
60714;SDS011;46564;53.096;8.246;2022-10-31T01:34:02;12.30;;;5.75;;
60714;SDS011;46564;53.096;8.246;2022-10-31T01:39:08;12.80;;;6.25;;
60714;SDS011;46564;53.096;8.246;2022-10-31T01:54:46;11.93;;;5.35;;
60714;SDS011;46564;53.096;8.246;2022-10-31T01:59:52;14.52;;;6.47;;
60714;SDS011;46564;53.096;8.246;2022-10-31T02:04:58;13.13;;;5.70;;
60714;SDS011;46564;53.096;8.246;2022-10-31T02:10:02;11.88;;;5.63;;
60714;SDS011;46564;53.096;8.246;2022-10-31T02:15:05;15.23;;;5.82;;
60714;SDS011;46564;53.096;8.246;2022-10-31T02:20:12;11.38;;;5.00;;
60714;SDS011;46564;53.096;8.246;2022-10-31T02:35:50;10.55;;;5.43;;
60714;SDS011;46564;53.096;8.246;2022-10-31T02:41:18;13.68;;;5.55;;
60714;SDS011;46564;53.096;8.246;2022-10-31T02:51:40;9.38;;;5.35;;
60714;SDS011;46564;53.096;8.246;2022-10-31T02:56:44;10.30;;;5.20;;
60714;SDS011;46564;53.096;8.246;2022-10-31T03:01:55;10.43;;;4.70;;
60714;SDS011;46564;53.096;8.246;2022-10-31T03:07:20;11.75;;;4.80;;
60714;SDS011;46564;53.096;8.246;2022-10-31T03:12:30;12.38;;;5.25;;
60714;SDS011;46564;53.096;8.246;2022-10-31T03:23:16;9.57;;;4.45;;
60714;SDS011;46564;53.096;8.246;2022-10-31T03:28:30;9.85;;;5.03;;
60714;SDS011;46564;53.096;8.246;2022-10-31T03:33:38;9.10;;;4.30;;
60714;SDS011;46564;53.096;8.246;2022-10-31T03:38:42;11.05;;;4.93;;
60714;SDS011;46564;53.096;8.246;2022-10-31T03:43:52;9.02;;;4.55;;
60714;SDS011;46564;53.096;8.246;2022-10-31T03:48:59;6.60;;;3.47;;
60714;SDS011;46564;53.096;8.246;2022-10-31T03:54:03;7.40;;;4.38;;
60714;SDS011;46564;53.096;8.246;2022-10-31T04:04:27;9.70;;;4.15;;
60714;SDS011;46564;53.096;8.246;2022-10-31T04:09:32;4.97;;;2.97;;
60714;SDS011;46564;53.096;8.246;2022-10-31T04:14:38;7.18;;;3.95;;
60714;SDS011;46564;53.096;8.246;2022-10-31T04:19:41;7.32;;;3.83;;
60714;SDS011;46564;53.096;8.246;2022-10-31T04:24:43;7.72;;;3.70;;
60714;SDS011;46564;53.096;8.246;2022-10-31T04:29:48;7.68;;;4.07;;
60714;SDS011;46564;53.096;8.246;2022-10-31T04:34:51;6.93;;;3.92;;
60714;SDS011;46564;53.096;8.246;2022-10-31T04:39:53;7.47;;;3.70;;
60714;SDS011;46564;53.096;8.246;2022-10-31T04:45:17;7.50;;;3.85;;
60714;SDS011;46564;53.096;8.246;2022-10-31T04:50:24;7.78;;;4.15;;
60714;SDS011;46564;53.096;8.246;2022-10-31T04:55:26;8.50;;;4.07;;
60714;SDS011;46564;53.096;8.246;2022-10-31T05:01:06;9.88;;;4.68;;
60714;SDS011;46564;53.096;8.246;2022-10-31T05:06:08;8.38;;;4.35;;
60714;SDS011;46564;53.096;8.246;2022-10-31T05:11:13;8.63;;;4.65;;
60714;SDS011;46564;53.096;8.246;2022-10-31T05:16:17;7.32;;;3.95;;
60714;SDS011;46564;53.096;8.246;2022-10-31T05:21:31;6.63;;;3.33;;
60714;SDS011;46564;53.096;8.246;2022-10-31T05:26:35;7.28;;;4.18;;
60714;SDS011;46564;53.096;8.246;2022-10-31T05:31:37;7.10;;;3.90;;
60714;SDS011;46564;53.096;8.246;2022-10-31T05:36:41;8.02;;;4.50;;
60714;SDS011;46564;53.096;8.246;2022-10-31T05:41:46;6.97;;;3.58;;
60714;SDS011;46564;53.096;8.246;2022-10-31T05:51:57;7.30;;;3.80;;
60714;SDS011;46564;53.096;8.246;2022-10-31T05:57:07;7.53;;;3.90;;
60714;SDS011;46564;53.096;8.246;2022-10-31T06:02:09;4.95;;;2.25;;
60714;SDS011;46564;53.096;8.246;2022-10-31T06:07:35;6.63;;;3.70;;
60714;SDS011;46564;53.096;8.246;2022-10-31T06:12:37;6.22;;;3.10;;
60714;SDS011;46564;53.096;8.246;2022-10-31T06:18:05;5.85;;;3.00;;
60714;SDS011;46564;53.096;8.246;2022-10-31T06:23:10;7.07;;;3.67;;
60714;SDS011;46564;53.096;8.246;2022-10-31T06:28:13;7.85;;;4.30;;
60714;SDS011;46564;53.096;8.246;2022-10-31T06:33:24;6.55;;;3.55;;
60714;SDS011;46564;53.096;8.246;2022-10-31T06:38:30;7.88;;;3.78;;
60714;SDS011;46564;53.096;8.246;2022-10-31T06:43:32;6.95;;;3.58;;
60714;SDS011;46564;53.096;8.246;2022-10-31T06:48:54;6.85;;;4.07;;
60714;SDS011;46564;53.096;8.246;2022-10-31T06:54:09;5.30;;;3.00;;
60714;SDS011;46564;53.096;8.246;2022-10-31T06:59:11;6.63;;;3.47;;
60714;SDS011;46564;53.096;8.246;2022-10-31T07:04:32;6.30;;;3.10;;
60714;SDS011;46564;53.096;8.246;2022-10-31T07:09:34;6.28;;;3.40;;
60714;SDS011;46564;53.096;8.246;2022-10-31T07:14:41;7.15;;;4.32;;
60714;SDS011;46564;53.096;8.246;2022-10-31T07:19:42;7.18;;;3.38;;
60714;SDS011;46564;53.096;8.246;2022-10-31T07:24:46;5.93;;;3.25;;
60714;SDS011;46564;53.096;8.246;2022-10-31T07:30:08;8.63;;;3.95;;
60714;SDS011;46564;53.096;8.246;2022-10-31T07:35:20;7.78;;;4.20;;
60714;SDS011;46564;53.096;8.246;2022-10-31T07:40:30;5.75;;;3.83;;
60714;SDS011;46564;53.096;8.246;2022-10-31T07:47:02;8.02;;;3.53;;
60714;SDS011;46564;53.096;8.246;2022-10-31T07:53:03;7.50;;;4.25;;
60714;SDS011;46564;53.096;8.246;2022-10-31T07:58:23;7.10;;;4.10;;
60714;SDS011;46564;53.096;8.246;2022-10-31T08:09:14;7.68;;;4.18;;
60714;SDS011;46564;53.096;8.246;2022-10-31T08:20:02;5.45;;;2.47;;
60714;SDS011;46564;53.096;8.246;2022-10-31T08:25:13;5.50;;;3.08;;
60714;SDS011;46564;53.096;8.246;2022-10-31T08:30:17;6.32;;;3.42;;
60714;SDS011;46564;53.096;8.246;2022-10-31T08:35:33;5.63;;;3.08;;
60714;SDS011;46564;53.096;8.246;2022-10-31T08:40:58;7.88;;;3.70;;
60714;SDS011;46564;53.096;8.246;2022-10-31T08:46:07;6.10;;;3.38;;
60714;SDS011;46564;53.096;8.246;2022-10-31T08:51:14;7.47;;;3.70;;
60714;SDS011;46564;53.096;8.246;2022-10-31T08:56:28;9.10;;;4.50;;
60714;SDS011;46564;53.096;8.246;2022-10-31T09:01:29;4.93;;;3.05;;
60714;SDS011;46564;53.096;8.246;2022-10-31T09:06:32;6.85;;;3.92;;
60714;SDS011;46564;53.096;8.246;2022-10-31T09:11:33;9.50;;;4.72;;
60714;SDS011;46564;53.096;8.246;2022-10-31T09:16:44;7.93;;;3.83;;
60714;SDS011;46564;53.096;8.246;2022-10-31T09:21:53;8.67;;;4.33;;
60714;SDS011;46564;53.096;8.246;2022-10-31T09:26:56;10.23;;;4.90;;
60714;SDS011;46564;53.096;8.246;2022-10-31T09:32:01;10.48;;;4.10;;
60714;SDS011;46564;53.096;8.246;2022-10-31T09:37:03;8.98;;;5.22;;
60714;SDS011;46564;53.096;8.246;2022-10-31T09:47:37;11.98;;;6.35;;
60714;SDS011;46564;53.096;8.246;2022-10-31T09:53:22;11.88;;;5.88;;
60714;SDS011;46564;53.096;8.246;2022-10-31T09:58:29;12.52;;;5.47;;
60714;SDS011;46564;53.096;8.246;2022-10-31T10:03:40;12.43;;;5.80;;
60714;SDS011;46564;53.096;8.246;2022-10-31T10:09:05;10.30;;;5.70;;
60714;SDS011;46564;53.096;8.246;2022-10-31T10:20:48;13.93;;;6.00;;
60714;SDS011;46564;53.096;8.246;2022-10-31T10:25:44;9.65;;;4.93;;
60714;SDS011;46564;53.096;8.246;2022-10-31T10:31:11;15.75;;;6.63;;
60714;SDS011;46564;53.096;8.246;2022-10-31T10:36:20;14.70;;;6.82;;
60714;SDS011;46564;53.096;8.246;2022-10-31T10:41:31;13.90;;;5.88;;
60714;SDS011;46564;53.096;8.246;2022-10-31T10:52:08;10.07;;;5.85;;
60714;SDS011;46564;53.096;8.246;2022-10-31T10:58:00;11.88;;;6.22;;
60714;SDS011;46564;53.096;8.246;2022-10-31T11:03:05;15.85;;;7.57;;
60714;SDS011;46564;53.096;8.246;2022-10-31T11:08:07;15.05;;;7.03;;
60714;SDS011;46564;53.096;8.246;2022-10-31T11:18:22;13.95;;;7.07;;
60714;SDS011;46564;53.096;8.246;2022-10-31T11:23:28;15.48;;;7.68;;
60714;SDS011;46564;53.096;8.246;2022-10-31T11:28:31;15.25;;;6.88;;
60714;SDS011;46564;53.096;8.246;2022-10-31T11:33:36;12.88;;;5.82;;
60714;SDS011;46564;53.096;8.246;2022-10-31T11:38:54;12.93;;;6.07;;
60714;SDS011;46564;53.096;8.246;2022-10-31T11:44:04;17.42;;;7.18;;
60714;SDS011;46564;53.096;8.246;2022-10-31T11:49:18;14.68;;;6.70;;
60714;SDS011;46564;53.096;8.246;2022-10-31T11:55:13;13.60;;;6.70;;
60714;SDS011;46564;53.096;8.246;2022-10-31T11:59:54;15.57;;;6.95;;
60714;SDS011;46564;53.096;8.246;2022-10-31T12:04:59;21.90;;;7.53;;
60714;SDS011;46564;53.096;8.246;2022-10-31T12:10:13;13.82;;;6.63;;
60714;SDS011;46564;53.096;8.246;2022-10-31T12:15:31;14.38;;;6.70;;
60714;SDS011;46564;53.096;8.246;2022-10-31T12:25:52;15.10;;;6.13;;
60714;SDS011;46564;53.096;8.246;2022-10-31T12:52:42;10.55;;;4.82;;
60714;SDS011;46564;53.096;8.246;2022-10-31T12:58:03;13.18;;;4.78;;
60714;SDS011;46564;53.096;8.246;2022-10-31T13:03:28;12.40;;;4.80;;
60714;SDS011;46564;53.096;8.246;2022-10-31T13:08:45;12.18;;;4.25;;
60714;SDS011;46564;53.096;8.246;2022-10-31T13:13:56;10.48;;;4.35;;
60714;SDS011;46564;53.096;8.246;2022-10-31T13:19:13;15.00;;;4.55;;
60714;SDS011;46564;53.096;8.246;2022-10-31T13:24:23;18.40;;;5.07;;
60714;SDS011;46564;53.096;8.246;2022-10-31T13:29:48;11.52;;;5.00;;
60714;SDS011;46564;53.096;8.246;2022-10-31T13:34:54;9.70;;;4.10;;
60714;SDS011;46564;53.096;8.246;2022-10-31T13:45:50;12.15;;;4.43;;
60714;SDS011;46564;53.096;8.246;2022-10-31T13:51:04;8.90;;;4.15;;
60714;SDS011;46564;53.096;8.246;2022-10-31T14:06:11;18.95;;;5.68;;
60714;SDS011;46564;53.096;8.246;2022-10-31T14:11:23;11.55;;;4.20;;
60714;SDS011;46564;53.096;8.246;2022-10-31T14:16:36;11.50;;;4.75;;
60714;SDS011;46564;53.096;8.246;2022-10-31T14:21:41;10.95;;;4.90;;
60714;SDS011;46564;53.096;8.246;2022-10-31T14:26:51;11.38;;;4.85;;
60714;SDS011;46564;53.096;8.246;2022-10-31T14:32:18;14.50;;;5.47;;
60714;SDS011;46564;53.096;8.246;2022-10-31T14:53:12;15.27;;;6.65;;
60714;SDS011;46564;53.096;8.246;2022-10-31T14:58:25;15.60;;;6.70;;
60714;SDS011;46564;53.096;8.246;2022-10-31T15:03:42;14.73;;;6.60;;
60714;SDS011;46564;53.096;8.246;2022-10-31T15:09:20;13.70;;;6.20;;
60714;SDS011;46564;53.096;8.246;2022-10-31T15:14:27;18.57;;;8.03;;
60714;SDS011;46564;53.096;8.246;2022-10-31T15:19:30;15.07;;;7.28;;
60714;SDS011;46564;53.096;8.246;2022-10-31T15:24:35;20.83;;;7.28;;
60714;SDS011;46564;53.096;8.246;2022-10-31T15:29:49;14.57;;;6.25;;
60714;SDS011;46564;53.096;8.246;2022-10-31T15:34:55;15.10;;;6.82;;
60714;SDS011;46564;53.096;8.246;2022-10-31T15:40:05;14.05;;;6.20;;
60714;SDS011;46564;53.096;8.246;2022-10-31T15:50:21;14.70;;;7.18;;
60714;SDS011;46564;53.096;8.246;2022-10-31T15:55:46;16.95;;;7.38;;
60714;SDS011;46564;53.096;8.246;2022-10-31T16:01:01;16.38;;;8.00;;
60714;SDS011;46564;53.096;8.246;2022-10-31T16:06:05;12.05;;;5.75;;
60714;SDS011;46564;53.096;8.246;2022-10-31T16:16:12;13.98;;;7.20;;
60714;SDS011;46564;53.096;8.246;2022-10-31T16:21:36;19.92;;;7.65;;
60714;SDS011;46564;53.096;8.246;2022-10-31T16:26:39;18.77;;;6.63;;
60714;SDS011;46564;53.096;8.246;2022-10-31T16:31:40;17.65;;;6.82;;
60714;SDS011;46564;53.096;8.246;2022-10-31T16:36:43;18.75;;;7.75;;
60714;SDS011;46564;53.096;8.246;2022-10-31T16:41:52;17.83;;;7.47;;
60714;SDS011;46564;53.096;8.246;2022-10-31T16:52:12;15.80;;;7.47;;
60714;SDS011;46564;53.096;8.246;2022-10-31T16:57:17;18.08;;;7.45;;
60714;SDS011;46564;53.096;8.246;2022-10-31T17:02:23;13.77;;;6.63;;
60714;SDS011;46564;53.096;8.246;2022-10-31T17:07:25;19.27;;;8.23;;
60714;SDS011;46564;53.096;8.246;2022-10-31T17:12:26;22.45;;;8.30;;
60714;SDS011;46564;53.096;8.246;2022-10-31T17:17:28;18.30;;;7.97;;
60714;SDS011;46564;53.096;8.246;2022-10-31T17:22:29;15.18;;;7.40;;
60714;SDS011;46564;53.096;8.246;2022-10-31T17:27:31;18.95;;;8.65;;
60714;SDS011;46564;53.096;8.246;2022-10-31T17:32:32;17.13;;;6.78;;
60714;SDS011;46564;53.096;8.246;2022-10-31T17:37:34;19.17;;;6.85;;
60714;SDS011;46564;53.096;8.246;2022-10-31T17:42:36;15.45;;;7.70;;
60714;SDS011;46564;53.096;8.246;2022-10-31T17:47:37;16.15;;;7.82;;
60714;SDS011;46564;53.096;8.246;2022-10-31T17:52:39;19.30;;;7.55;;
60714;SDS011;46564;53.096;8.246;2022-10-31T17:57:42;20.13;;;6.18;;
60714;SDS011;46564;53.096;8.246;2022-10-31T18:02:44;13.90;;;5.65;;
60714;SDS011;46564;53.096;8.246;2022-10-31T18:07:48;9.88;;;5.00;;
60714;SDS011;46564;53.096;8.246;2022-10-31T18:12:51;13.25;;;6.05;;
60714;SDS011;46564;53.096;8.246;2022-10-31T18:17:52;13.48;;;5.68;;
60714;SDS011;46564;53.096;8.246;2022-10-31T18:22:54;12.23;;;6.10;;
60714;SDS011;46564;53.096;8.246;2022-10-31T18:27:55;15.40;;;5.38;;
60714;SDS011;46564;53.096;8.246;2022-10-31T18:32:57;14.00;;;5.32;;
60714;SDS011;46564;53.096;8.246;2022-10-31T18:37:58;13.65;;;4.90;;
60714;SDS011;46564;53.096;8.246;2022-10-31T18:43:03;14.57;;;5.45;;
60714;SDS011;46564;53.096;8.246;2022-10-31T18:48:05;12.18;;;5.10;;
60714;SDS011;46564;53.096;8.246;2022-10-31T18:53:07;14.18;;;5.65;;
60714;SDS011;46564;53.096;8.246;2022-10-31T18:58:09;15.50;;;4.43;;
60714;SDS011;46564;53.096;8.246;2022-10-31T19:03:11;12.95;;;5.18;;
60714;SDS011;46564;53.096;8.246;2022-10-31T19:08:12;9.23;;;3.97;;
60714;SDS011;46564;53.096;8.246;2022-10-31T19:13:14;11.75;;;4.10;;
60714;SDS011;46564;53.096;8.246;2022-10-31T19:18:15;10.93;;;4.00;;
60714;SDS011;46564;53.096;8.246;2022-10-31T19:23:17;11.10;;;4.50;;
60714;SDS011;46564;53.096;8.246;2022-10-31T19:28:18;9.98;;;4.43;;
60714;SDS011;46564;53.096;8.246;2022-10-31T19:33:20;10.43;;;4.07;;
60714;SDS011;46564;53.096;8.246;2022-10-31T19:38:21;12.43;;;4.88;;
60714;SDS011;46564;53.096;8.246;2022-10-31T19:43:23;11.85;;;4.25;;
60714;SDS011;46564;53.096;8.246;2022-10-31T19:48:30;13.38;;;6.40;;
60714;SDS011;46564;53.096;8.246;2022-10-31T19:53:32;10.40;;;4.55;;
60714;SDS011;46564;53.096;8.246;2022-10-31T19:58:34;10.77;;;4.65;;
60714;SDS011;46564;53.096;8.246;2022-10-31T20:03:36;10.60;;;4.68;;
60714;SDS011;46564;53.096;8.246;2022-10-31T20:08:39;13.50;;;4.35;;
60714;SDS011;46564;53.096;8.246;2022-10-31T20:13:40;10.68;;;4.85;;
60714;SDS011;46564;53.096;8.246;2022-10-31T20:18:42;11.30;;;5.22;;
60714;SDS011;46564;53.096;8.246;2022-10-31T20:23:44;11.40;;;4.43;;
60714;SDS011;46564;53.096;8.246;2022-10-31T20:28:47;15.07;;;4.57;;
60714;SDS011;46564;53.096;8.246;2022-10-31T20:33:49;16.40;;;5.75;;
60714;SDS011;46564;53.096;8.246;2022-10-31T20:38:51;10.88;;;4.88;;
60714;SDS011;46564;53.096;8.246;2022-10-31T20:43:53;13.55;;;5.25;;
60714;SDS011;46564;53.096;8.246;2022-10-31T20:48:54;12.98;;;5.97;;
60714;SDS011;46564;53.096;8.246;2022-10-31T20:53:57;11.48;;;5.53;;
60714;SDS011;46564;53.096;8.246;2022-10-31T20:59:00;13.57;;;5.35;;
60714;SDS011;46564;53.096;8.246;2022-10-31T21:04:02;12.70;;;5.22;;
60714;SDS011;46564;53.096;8.246;2022-10-31T21:09:04;13.15;;;5.32;;
60714;SDS011;46564;53.096;8.246;2022-10-31T21:14:07;11.23;;;5.22;;
60714;SDS011;46564;53.096;8.246;2022-10-31T21:19:09;13.23;;;4.68;;
60714;SDS011;46564;53.096;8.246;2022-10-31T21:24:11;14.75;;;5.50;;
60714;SDS011;46564;53.096;8.246;2022-10-31T21:29:15;12.98;;;5.57;;
60714;SDS011;46564;53.096;8.246;2022-10-31T21:34:17;13.95;;;5.65;;
60714;SDS011;46564;53.096;8.246;2022-10-31T21:39:19;16.25;;;5.18;;
60714;SDS011;46564;53.096;8.246;2022-10-31T21:44:21;14.80;;;5.50;;
60714;SDS011;46564;53.096;8.246;2022-10-31T21:49:22;13.43;;;4.88;;
60714;SDS011;46564;53.096;8.246;2022-10-31T21:54:23;14.13;;;5.28;;
60714;SDS011;46564;53.096;8.246;2022-10-31T21:59:28;17.08;;;5.38;;
60714;SDS011;46564;53.096;8.246;2022-10-31T22:04:29;14.07;;;5.85;;
60714;SDS011;46564;53.096;8.246;2022-10-31T22:09:31;15.13;;;5.82;;
60714;SDS011;46564;53.096;8.246;2022-10-31T22:14:32;14.30;;;5.88;;
60714;SDS011;46564;53.096;8.246;2022-10-31T22:19:34;18.92;;;4.95;;
60714;SDS011;46564;53.096;8.246;2022-10-31T22:24:35;12.13;;;5.32;;
60714;SDS011;46564;53.096;8.246;2022-10-31T22:29:37;12.55;;;5.65;;
60714;SDS011;46564;53.096;8.246;2022-10-31T22:34:38;12.75;;;5.20;;
60714;SDS011;46564;53.096;8.246;2022-10-31T22:39:40;14.82;;;4.47;;
60714;SDS011;46564;53.096;8.246;2022-10-31T22:44:41;15.15;;;5.88;;
60714;SDS011;46564;53.096;8.246;2022-10-31T22:49:43;12.63;;;5.65;;
60714;SDS011;46564;53.096;8.246;2022-10-31T22:54:44;14.65;;;5.57;;
60714;SDS011;46564;53.096;8.246;2022-10-31T22:59:46;14.43;;;6.47;;
60714;SDS011;46564;53.096;8.246;2022-10-31T23:04:47;14.32;;;5.90;;
60714;SDS011;46564;53.096;8.246;2022-10-31T23:09:48;15.73;;;5.50;;
60714;SDS011;46564;53.096;8.246;2022-10-31T23:14:50;14.23;;;6.18;;
60714;SDS011;46564;53.096;8.246;2022-10-31T23:19:51;18.83;;;6.10;;
60714;SDS011;46564;53.096;8.246;2022-10-31T23:24:53;14.65;;;4.90;;
60714;SDS011;46564;53.096;8.246;2022-10-31T23:29:55;16.92;;;6.40;;
60714;SDS011;46564;53.096;8.246;2022-10-31T23:34:59;14.95;;;6.00;;
60714;SDS011;46564;53.096;8.246;2022-10-31T23:40:07;16.30;;;5.47;;
60714;SDS011;46564;53.096;8.246;2022-10-31T23:45:09;16.00;;;6.15;;
60714;SDS011;46564;53.096;8.246;2022-10-31T23:50:11;12.77;;;5.97;;
60714;SDS011;46564;53.096;8.246;2022-10-31T23:55:12;14.55;;;6.70;;
